createdAt,value
2022-11-30T00:00:16.034Z,25.88
2022-11-30T00:01:20.677Z,25.33
2022-11-30T00:02:22.378Z,24.23
2022-11-30T00:03:25.495Z,23.50
2022-11-30T00:04:27.070Z,24.83
2022-11-30T00:05:30.934Z,24.27
2022-11-30T00:06:32.422Z,23.38
2022-11-30T00:07:35.553Z,24.50
2022-11-30T00:08:37.216Z,25.67
2022-11-30T00:09:39.738Z,26.60
2022-11-30T00:10:41.748Z,24.83
2022-11-30T00:11:44.202Z,25.23
2022-11-30T00:12:45.788Z,25.98
2022-11-30T00:13:49.000Z,24.30
2022-11-30T00:14:50.960Z,26.70
2022-11-30T00:15:53.869Z,26.17
2022-11-30T00:16:55.456Z,26.50
2022-11-30T00:17:58.468Z,25.02
2022-11-30T00:19:00.005Z,26.60
2022-11-30T00:20:02.491Z,24.45
2022-11-30T00:21:08.580Z,22.83
2022-11-30T00:22:11.198Z,24.65
2022-11-30T00:23:12.725Z,25.17
2022-11-30T00:24:15.313Z,24.77
2022-11-30T00:25:16.984Z,25.55
2022-11-30T00:26:22.693Z,23.75
2022-11-30T00:27:24.205Z,24.08
2022-11-30T00:28:26.768Z,26.90
2022-11-30T00:29:28.356Z,24.05
2022-11-30T00:30:31.590Z,23.02
2022-11-30T00:31:33.158Z,22.85
2022-11-30T00:32:35.678Z,22.75
2022-11-30T00:33:38.545Z,23.17
2022-11-30T00:34:41.062Z,24.20
2022-11-30T00:35:44.255Z,23.23
2022-11-30T00:36:48.431Z,26.08
2022-11-30T00:37:49.917Z,25.52
2022-11-30T00:38:52.911Z,24.35
2022-11-30T00:39:54.421Z,25.30
2022-11-30T00:40:56.892Z,23.20
2022-11-30T00:41:58.368Z,21.65
2022-11-30T00:43:00.843Z,22.67
2022-11-30T00:44:02.670Z,23.65
2022-11-30T00:45:05.854Z,23.77
2022-11-30T00:46:09.281Z,22.83
2022-11-30T00:47:11.880Z,22.80
2022-11-30T00:48:13.642Z,24.60
2022-11-30T00:49:16.356Z,24.23
2022-11-30T00:50:17.856Z,24.92
2022-11-30T00:51:20.402Z,26.35
2022-11-30T00:52:23.282Z,26.77
2022-11-30T00:53:25.781Z,26.35
2022-11-30T00:54:27.523Z,23.35
2022-11-30T00:55:31.752Z,24.50
2022-11-30T00:56:33.273Z,24.77
2022-11-30T00:57:35.745Z,26.67
2022-11-30T00:58:37.361Z,28.33
2022-11-30T00:59:39.828Z,26.08
2022-11-30T01:00:41.461Z,25.58
2022-11-30T01:01:43.981Z,25.20
2022-11-30T01:02:45.837Z,25.58
2022-11-30T01:03:48.541Z,25.30
2022-11-30T01:04:50.037Z,25.25
2022-11-30T01:05:53.265Z,26.35
2022-11-30T01:06:54.899Z,27.80
2022-11-30T01:08:00.566Z,23.40
2022-11-30T01:09:03.002Z,27.70
2022-11-30T01:10:06.543Z,26.20
2022-11-30T01:11:12.222Z,25.25
2022-11-30T01:12:14.813Z,25.42
2022-11-30T01:13:16.414Z,25.75
2022-11-30T01:14:18.909Z,25.70
2022-11-30T01:15:20.503Z,25.73
2022-11-30T01:16:26.213Z,24.00
2022-11-30T01:17:27.996Z,26.05
2022-11-30T01:18:30.489Z,28.02
2022-11-30T01:19:32.049Z,26.20
2022-11-30T01:20:34.859Z,27.50
2022-11-30T01:21:36.368Z,26.83
2022-11-30T01:22:39.074Z,25.40
2022-11-30T01:23:42.408Z,30.05
2022-11-30T01:24:45.137Z,25.05
2022-11-30T01:25:53.867Z,26.70
2022-11-30T01:26:56.408Z,25.65
2022-11-30T01:27:57.910Z,25.13
2022-11-30T01:29:00.434Z,28.70
2022-11-30T01:30:01.983Z,26.70
2022-11-30T01:31:07.072Z,29.23
2022-11-30T01:32:08.652Z,27.55
2022-11-30T01:33:11.150Z,26.98
2022-11-30T01:34:12.709Z,27.42
2022-11-30T01:35:15.410Z,28.42
2022-11-30T01:36:19.001Z,27.38
2022-11-30T01:37:21.483Z,29.48
2022-11-30T01:38:23.580Z,30.75
2022-11-30T01:39:27.489Z,28.23
2022-11-30T01:40:29.048Z,30.45
2022-11-30T01:41:33.178Z,29.73
2022-11-30T01:42:34.797Z,29.23
2022-11-30T01:43:42.514Z,28.92
2022-11-30T01:44:53.408Z,29.17
2022-11-30T01:45:56.244Z,28.83
2022-11-30T01:47:01.018Z,29.65
2022-11-30T01:48:05.408Z,31.13
2022-11-30T01:49:16.065Z,30.10
2022-11-30T01:50:21.716Z,29.33
2022-11-30T01:51:23.439Z,28.90
2022-11-30T01:52:29.867Z,32.17
2022-11-30T01:53:31.364Z,28.85
2022-11-30T01:54:39.782Z,29.40
2022-11-30T01:55:44.842Z,30.33
2022-11-30T01:56:51.680Z,29.08
2022-11-30T01:57:57.934Z,31.38
2022-11-30T01:59:01.217Z,32.33
2022-11-30T02:00:07.735Z,31.05
2022-11-30T02:01:13.818Z,30.60
2022-11-30T02:02:16.605Z,29.40
2022-11-30T02:03:27.267Z,30.15
2022-11-30T02:04:31.591Z,30.55
2022-11-30T02:05:37.473Z,31.38
2022-11-30T02:06:39.492Z,31.65
2022-11-30T02:07:42.941Z,28.08
2022-11-30T02:08:44.765Z,31.42
2022-11-30T02:09:51.379Z,29.48
2022-11-30T02:10:55.626Z,31.15
2022-11-30T02:11:58.363Z,30.88
2022-11-30T02:13:20.296Z,32.10
2022-11-30T02:14:30.917Z,31.13
2022-11-30T02:15:43.946Z,30.85
2022-11-30T02:16:57.217Z,33.65
2022-11-30T02:18:09.306Z,31.00
2022-11-30T02:19:32.120Z,30.42
2022-11-30T02:21:05.729Z,33.97
2022-11-30T02:22:15.508Z,32.90
2022-11-30T02:23:55.859Z,33.45
2022-11-30T02:25:08.358Z,29.85
2022-11-30T02:26:25.280Z,33.50
2022-11-30T02:27:45.142Z,29.73
2022-11-30T02:29:04.839Z,31.85
2022-11-30T02:30:08.926Z,33.05
2022-11-30T02:31:17.744Z,31.80
2022-11-30T02:32:25.361Z,30.58
2022-11-30T02:33:32.860Z,29.30
2022-11-30T02:34:36.916Z,30.02
2022-11-30T02:35:51.554Z,33.33
2022-11-30T02:36:59.943Z,31.00
2022-11-30T02:38:04.133Z,30.85
2022-11-30T02:39:07.228Z,33.05
2022-11-30T02:40:10.938Z,29.40
2022-11-30T02:41:13.426Z,29.00
2022-11-30T02:42:15.360Z,29.48
2022-11-30T02:43:20.017Z,28.90
2022-11-30T02:44:24.316Z,30.02
2022-11-30T02:45:35.319Z,28.42
2022-11-30T02:46:46.985Z,29.60
2022-11-30T02:47:56.305Z,34.22
2022-11-30T02:49:06.132Z,29.58
2022-11-30T02:50:15.019Z,28.73
2022-11-30T02:51:20.008Z,29.45
2022-11-30T02:52:26.976Z,30.75
2022-11-30T02:53:29.954Z,28.70
2022-11-30T02:54:32.251Z,28.55
2022-11-30T02:55:34.936Z,25.98
2022-11-30T02:56:36.458Z,27.65
2022-11-30T02:57:38.921Z,27.35
2022-11-30T02:58:41.104Z,27.05
2022-11-30T02:59:45.149Z,25.17
2022-11-30T03:00:47.099Z,25.85
2022-11-30T03:01:49.663Z,27.90
2022-11-30T03:02:51.221Z,26.70
2022-11-30T03:03:53.734Z,27.50
2022-11-30T03:04:55.217Z,29.35
2022-11-30T03:05:57.794Z,25.85
2022-11-30T03:06:59.327Z,26.83
2022-11-30T03:08:01.868Z,28.50
2022-11-30T03:09:03.414Z,25.10
2022-11-30T03:10:07.852Z,25.40
2022-11-30T03:11:09.367Z,25.95
2022-11-30T03:12:12.233Z,28.23
2022-11-30T03:13:13.909Z,26.40
2022-11-30T03:14:16.389Z,25.98
2022-11-30T03:15:19.231Z,26.27
2022-11-30T03:16:21.760Z,25.27
2022-11-30T03:17:23.384Z,26.52
2022-11-30T03:18:25.964Z,25.35
2022-11-30T03:19:27.479Z,25.55
2022-11-30T03:20:29.954Z,25.40
2022-11-30T03:21:31.520Z,24.83
2022-11-30T03:22:34.013Z,25.75
2022-11-30T03:23:35.830Z,23.33
2022-11-30T03:24:38.351Z,26.98
2022-11-30T03:25:39.894Z,26.95
2022-11-30T03:26:42.483Z,26.15
2022-11-30T03:27:44.010Z,24.73
2022-11-30T03:28:46.672Z,24.90
2022-11-30T03:29:48.425Z,25.67
2022-11-30T03:30:52.354Z,24.08
2022-11-30T03:31:54.435Z,25.30
2022-11-30T03:33:06.757Z,25.00
2022-11-30T03:34:08.322Z,25.48
2022-11-30T03:35:10.981Z,25.95
2022-11-30T03:36:13.082Z,26.63
2022-11-30T03:37:15.604Z,27.73
2022-11-30T03:38:17.259Z,26.80
2022-11-30T03:39:20.062Z,27.27
2022-11-30T03:40:21.631Z,24.15
2022-11-30T03:41:24.187Z,27.48
2022-11-30T03:42:25.741Z,28.10
2022-11-30T03:43:28.587Z,29.15
2022-11-30T03:44:30.198Z,26.73
2022-11-30T03:45:32.674Z,26.73
2022-11-30T03:46:35.659Z,29.73
2022-11-30T03:47:38.313Z,30.35
2022-11-30T03:48:41.260Z,27.33
2022-11-30T03:49:43.876Z,25.88
2022-11-30T03:50:49.586Z,28.38
2022-11-30T03:51:52.066Z,27.70
2022-11-30T03:52:53.598Z,27.65
2022-11-30T03:53:56.216Z,25.55
2022-11-30T03:54:57.704Z,27.25
2022-11-30T03:56:01.969Z,27.85
2022-11-30T03:57:03.629Z,25.20
2022-11-30T03:58:06.114Z,28.23
2022-11-30T03:59:08.757Z,25.20
2022-11-30T04:00:11.562Z,27.70
2022-11-30T04:01:17.591Z,26.63
2022-11-30T04:02:20.828Z,25.92
2022-11-30T04:03:23.623Z,25.27
2022-11-30T04:04:25.234Z,25.35
2022-11-30T04:05:27.725Z,26.38
2022-11-30T04:06:29.272Z,22.48
2022-11-30T04:07:31.900Z,23.15
2022-11-30T04:08:34.223Z,23.15
2022-11-30T04:09:36.687Z,20.25
2022-11-30T04:10:38.765Z,22.08
2022-11-30T04:11:41.283Z,21.75
2022-11-30T04:12:42.791Z,22.60
2022-11-30T04:13:45.436Z,22.52
2022-11-30T04:14:49.813Z,24.27
2022-11-30T04:15:54.021Z,22.55
2022-11-30T04:16:55.703Z,22.02
2022-11-30T04:17:59.566Z,23.10
2022-11-30T04:19:02.345Z,22.33
2022-11-30T04:20:04.837Z,23.35
2022-11-30T04:21:08.182Z,23.20
2022-11-30T04:22:09.715Z,21.77
2022-11-30T04:23:13.274Z,19.73
2022-11-30T04:24:14.817Z,22.27
2022-11-30T04:25:17.612Z,20.00
2022-11-30T04:26:19.136Z,23.05
2022-11-30T04:27:21.621Z,21.08
2022-11-30T04:28:23.584Z,21.77
2022-11-30T04:29:26.112Z,21.25
2022-11-30T04:30:28.245Z,21.08
2022-11-30T04:31:30.813Z,21.83
2022-11-30T04:32:32.369Z,20.02
2022-11-30T04:33:36.449Z,19.77
2022-11-30T04:34:37.939Z,19.95
2022-11-30T04:35:42.588Z,21.48
2022-11-30T04:36:44.121Z,21.17
2022-11-30T04:37:46.599Z,19.52
2022-11-30T04:38:48.302Z,21.15
2022-11-30T04:39:50.792Z,19.02
2022-11-30T04:40:52.644Z,21.92
2022-11-30T04:41:55.404Z,20.83
2022-11-30T04:42:56.951Z,20.65
2022-11-30T04:43:59.419Z,21.15
2022-11-30T04:45:00.918Z,21.85
2022-11-30T04:46:03.523Z,21.90
2022-11-30T04:47:05.029Z,19.77
2022-11-30T04:48:08.513Z,20.40
2022-11-30T04:49:11.399Z,21.33
2022-11-30T04:50:13.994Z,21.73
2022-11-30T04:51:15.555Z,21.17
2022-11-30T04:52:18.146Z,22.50
2022-11-30T04:53:19.640Z,22.23
2022-11-30T04:54:23.247Z,22.63
2022-11-30T04:55:24.811Z,21.27
2022-11-30T04:56:27.298Z,21.40
2022-11-30T04:57:28.821Z,20.13
2022-11-30T04:58:31.341Z,21.20
2022-11-30T04:59:32.901Z,20.77
2022-11-30T05:00:36.615Z,20.58
2022-11-30T05:01:38.220Z,21.00
2022-11-30T05:02:40.736Z,19.95
2022-11-30T05:03:46.552Z,19.80
2022-11-30T05:04:51.051Z,23.33
2022-11-30T05:05:52.827Z,22.48
2022-11-30T05:06:55.307Z,22.30
2022-11-30T05:07:58.825Z,20.10
2022-11-30T05:09:01.703Z,21.10
2022-11-30T05:10:05.325Z,20.17
2022-11-30T05:11:07.874Z,19.50
2022-11-30T05:12:09.467Z,20.52
2022-11-30T05:13:11.973Z,19.92
2022-11-30T05:14:13.592Z,19.20
2022-11-30T05:15:16.199Z,18.77
2022-11-30T05:16:17.736Z,18.98
2022-11-30T05:17:20.287Z,19.48
2022-11-30T05:18:22.163Z,19.10
2022-11-30T05:19:24.697Z,20.02
2022-11-30T05:20:27.607Z,19.30
2022-11-30T05:21:30.525Z,20.85
2022-11-30T05:22:34.843Z,18.60
2022-11-30T05:23:37.351Z,20.52
2022-11-30T05:24:38.949Z,20.23
2022-11-30T05:25:41.434Z,18.90
2022-11-30T05:26:42.989Z,20.30
2022-11-30T05:27:45.501Z,19.17
2022-11-30T05:28:47.221Z,19.23
2022-11-30T05:29:49.697Z,19.60
2022-11-30T05:30:51.245Z,19.05
2022-11-30T05:31:53.780Z,20.02
2022-11-30T05:32:55.314Z,17.02
2022-11-30T05:33:57.951Z,17.65
2022-11-30T05:34:59.759Z,19.30
2022-11-30T05:36:10.152Z,17.98
2022-11-30T05:37:12.287Z,19.10
2022-11-30T05:38:14.846Z,15.65
2022-11-30T05:39:16.396Z,18.75
2022-11-30T05:40:19.109Z,18.02
2022-11-30T05:41:20.820Z,19.50
2022-11-30T05:42:28.121Z,21.33
2022-11-30T05:43:29.674Z,20.20
2022-11-30T05:44:32.163Z,18.35
2022-11-30T05:45:33.658Z,18.40
2022-11-30T05:46:40.789Z,17.40
2022-11-30T05:47:42.630Z,18.42
2022-11-30T05:48:45.119Z,19.75
2022-11-30T05:49:49.482Z,17.75
2022-11-30T05:50:51.928Z,21.25
2022-11-30T05:51:54.806Z,18.05
2022-11-30T05:52:57.755Z,18.25
2022-11-30T05:53:59.474Z,18.08
2022-11-30T05:55:02.002Z,18.15
2022-11-30T05:56:04.539Z,19.85
2022-11-30T05:57:07.045Z,17.17
2022-11-30T05:58:08.592Z,19.70
2022-11-30T05:59:11.636Z,18.95
2022-11-30T06:00:14.602Z,18.48
2022-11-30T06:01:19.957Z,17.33
2022-11-30T06:02:26.693Z,18.15
2022-11-30T06:03:32.117Z,19.27
2022-11-30T06:04:34.220Z,18.15
2022-11-30T06:05:37.199Z,17.35
2022-11-30T06:06:38.894Z,19.83
2022-11-30T06:07:42.786Z,18.98
2022-11-30T06:08:45.847Z,18.98
2022-11-30T06:09:48.498Z,17.75
2022-11-30T06:10:50.254Z,17.90
2022-11-30T06:11:53.007Z,18.70
2022-11-30T06:12:54.505Z,16.92
2022-11-30T06:13:57.271Z,19.02
2022-11-30T06:14:58.782Z,18.58
2022-11-30T06:16:01.638Z,17.33
2022-11-30T06:17:03.406Z,17.90
2022-11-30T06:18:07.165Z,17.80
2022-11-30T06:19:08.693Z,17.52
2022-11-30T06:20:12.028Z,16.90
2022-11-30T06:21:13.541Z,19.70
2022-11-30T06:22:16.043Z,17.35
2022-11-30T06:23:18.950Z,17.58
2022-11-30T06:24:21.460Z,17.42
2022-11-30T06:25:23.415Z,16.48
2022-11-30T06:26:26.136Z,17.23
2022-11-30T06:27:30.959Z,17.23
2022-11-30T06:28:33.889Z,18.55
2022-11-30T06:29:36.366Z,18.05
2022-11-30T06:30:38.205Z,17.95
2022-11-30T06:31:40.947Z,17.83
2022-11-30T06:32:44.751Z,19.30
2022-11-30T06:33:47.268Z,19.73
2022-11-30T06:34:49.076Z,18.85
2022-11-30T06:35:52.489Z,19.88
2022-11-30T06:37:01.336Z,21.02
2022-11-30T06:38:03.879Z,19.50
2022-11-30T06:39:08.765Z,18.20
2022-11-30T06:40:14.472Z,19.40
2022-11-30T06:41:16.038Z,20.40
2022-11-30T06:42:19.552Z,19.70
2022-11-30T06:43:22.127Z,19.17
2022-11-30T06:44:23.636Z,17.92
2022-11-30T06:45:26.244Z,21.45
2022-11-30T06:46:29.010Z,19.95
2022-11-30T06:47:30.557Z,21.17
2022-11-30T06:48:33.789Z,20.30
2022-11-30T06:49:35.320Z,18.45
2022-11-30T06:50:38.051Z,19.80
2022-11-30T06:51:39.637Z,18.92
2022-11-30T06:52:42.222Z,21.95
2022-11-30T06:53:44.397Z,19.40
2022-11-30T06:54:48.514Z,19.30
2022-11-30T06:55:51.330Z,17.80
2022-11-30T06:56:53.816Z,20.42
2022-11-30T06:57:56.335Z,20.35
2022-11-30T06:58:58.925Z,21.35
2022-11-30T07:00:00.471Z,20.52
2022-11-30T07:01:05.873Z,19.08
2022-11-30T07:02:13.075Z,19.88
2022-11-30T07:03:19.890Z,20.00
2022-11-30T07:04:21.672Z,21.35
2022-11-30T07:05:24.621Z,19.88
2022-11-30T07:06:26.310Z,19.65
2022-11-30T07:07:30.592Z,22.00
2022-11-30T07:08:33.500Z,19.42
2022-11-30T07:09:37.657Z,21.48
2022-11-30T07:10:42.892Z,21.23
2022-11-30T07:11:44.451Z,20.50
2022-11-30T07:12:47.214Z,19.67
2022-11-30T07:13:48.821Z,19.95
2022-11-30T07:14:52.693Z,21.20
2022-11-30T07:15:54.277Z,20.55
2022-11-30T07:16:56.741Z,21.00
2022-11-30T07:18:00.430Z,19.77
2022-11-30T07:19:02.920Z,21.85
2022-11-30T07:20:05.630Z,21.42
2022-11-30T07:21:08.415Z,22.30
2022-11-30T07:22:09.946Z,20.05
2022-11-30T07:23:30.026Z,22.08
2022-11-30T07:24:50.701Z,22.50
2022-11-30T07:26:07.594Z,22.90
2022-11-30T07:27:10.196Z,22.92
2022-11-30T07:28:11.700Z,23.35
2022-11-30T07:29:14.206Z,21.15
2022-11-30T07:30:16.173Z,22.40
2022-11-30T07:31:21.438Z,20.80
2022-11-30T07:32:23.146Z,19.85
2022-11-30T07:33:25.844Z,20.92
2022-11-30T07:34:28.769Z,21.42
2022-11-30T07:35:30.340Z,21.70
2022-11-30T07:36:32.826Z,21.40
2022-11-30T07:37:34.369Z,22.00
2022-11-30T07:38:37.059Z,21.15
2022-11-30T07:39:39.582Z,21.67
2022-11-30T07:40:41.373Z,21.80
2022-11-30T07:41:45.380Z,20.95
2022-11-30T07:42:47.861Z,20.30
2022-11-30T07:43:50.385Z,21.65
2022-11-30T07:44:57.055Z,22.55
2022-11-30T07:46:02.133Z,21.98
2022-11-30T07:47:04.644Z,21.50
2022-11-30T07:48:06.435Z,21.88
2022-11-30T07:49:10.936Z,21.27
2022-11-30T07:50:12.474Z,22.70
2022-11-30T07:51:16.947Z,22.83
2022-11-30T07:52:18.482Z,23.92
2022-11-30T07:53:20.968Z,21.20
2022-11-30T07:54:22.752Z,21.95
2022-11-30T07:55:25.250Z,21.60
2022-11-30T07:56:29.040Z,20.90
2022-11-30T07:57:32.025Z,19.85
2022-11-30T07:58:35.203Z,20.60
2022-11-30T07:59:36.711Z,21.15
2022-11-30T08:00:39.739Z,20.30
2022-11-30T08:01:42.446Z,20.65
2022-11-30T08:02:44.180Z,21.92
2022-11-30T08:03:46.922Z,21.80
2022-11-30T08:04:50.944Z,20.98
2022-11-30T08:05:52.786Z,21.85
2022-11-30T08:06:55.363Z,19.20
2022-11-30T08:07:57.100Z,22.30
2022-11-30T08:09:02.175Z,20.73
2022-11-30T08:10:04.826Z,21.48
2022-11-30T08:11:09.078Z,21.17
2022-11-30T08:12:11.619Z,21.95
2022-11-30T08:13:14.650Z,20.95
2022-11-30T08:14:17.420Z,24.40
2022-11-30T08:15:20.777Z,22.15
2022-11-30T08:16:25.391Z,28.05
2022-11-30T08:17:26.924Z,21.33
2022-11-30T08:18:29.494Z,20.52
2022-11-30T08:19:31.982Z,21.10
2022-11-30T08:20:33.500Z,21.05
2022-11-30T08:21:37.915Z,21.90
2022-11-30T08:22:40.542Z,21.38
2022-11-30T08:23:43.987Z,20.10
2022-11-30T08:24:46.656Z,20.35
2022-11-30T08:25:48.211Z,20.63
2022-11-30T08:26:51.935Z,22.08
2022-11-30T08:27:53.463Z,19.90
2022-11-30T08:28:58.887Z,20.50
2022-11-30T08:30:00.415Z,21.30
2022-11-30T08:31:06.449Z,20.77
2022-11-30T08:32:09.063Z,20.15
2022-11-30T08:33:14.465Z,20.35
2022-11-30T08:34:17.056Z,22.10
2022-11-30T08:35:18.608Z,19.38
2022-11-30T08:36:22.985Z,22.48
2022-11-30T08:37:25.835Z,21.00
2022-11-30T08:38:28.199Z,22.02
2022-11-30T08:39:31.715Z,20.70
2022-11-30T08:40:33.288Z,20.85
2022-11-30T08:41:36.638Z,21.50
2022-11-30T08:42:39.109Z,21.25
2022-11-30T08:43:40.887Z,21.48
2022-11-30T08:44:44.710Z,20.25
2022-11-30T08:45:46.270Z,20.73
2022-11-30T08:46:51.941Z,20.55
2022-11-30T08:47:55.344Z,21.25
2022-11-30T08:49:13.007Z,21.90
2022-11-30T08:50:19.700Z,20.77
2022-11-30T08:51:22.611Z,22.10
2022-11-30T08:52:25.467Z,18.35
2022-11-30T08:53:27.064Z,21.80
2022-11-30T08:54:29.606Z,21.88
2022-11-30T08:55:32.145Z,22.88
2022-11-30T08:56:34.613Z,21.48
2022-11-30T08:57:37.068Z,21.00
2022-11-30T08:58:41.354Z,22.08
2022-11-30T08:59:44.451Z,22.40
2022-11-30T09:00:46.928Z,22.30
2022-11-30T09:01:48.439Z,19.55
2022-11-30T09:02:51.304Z,22.15
2022-11-30T09:03:55.642Z,21.48
2022-11-30T09:04:58.176Z,21.73
2022-11-30T09:06:04.222Z,20.67
2022-11-30T09:07:06.700Z,21.40
2022-11-30T09:08:09.470Z,23.67
2022-11-30T09:09:11.019Z,22.00
2022-11-30T09:10:16.873Z,18.95
2022-11-30T09:11:19.968Z,21.52
2022-11-30T09:12:22.435Z,21.15
2022-11-30T09:13:24.492Z,21.90
2022-11-30T09:14:27.323Z,21.88
2022-11-30T09:15:31.414Z,21.95
2022-11-30T09:16:33.018Z,21.75
2022-11-30T09:17:35.963Z,22.15
2022-11-30T09:18:38.966Z,23.33
2022-11-30T09:19:41.405Z,21.77
2022-11-30T09:20:42.876Z,22.38
2022-11-30T09:21:51.189Z,23.15
2022-11-30T09:22:54.690Z,22.50
2022-11-30T09:23:57.290Z,24.65
2022-11-30T09:24:59.780Z,25.35
2022-11-30T09:26:03.065Z,22.60
2022-11-30T09:27:05.532Z,23.67
2022-11-30T09:28:12.162Z,23.38
2022-11-30T09:29:14.986Z,24.42
2022-11-30T09:30:17.796Z,24.38
2022-11-30T09:31:23.302Z,24.15
2022-11-30T09:32:25.827Z,24.95
2022-11-30T09:33:27.403Z,26.70
2022-11-30T09:34:29.892Z,25.08
2022-11-30T09:35:32.350Z,26.08
2022-11-30T09:36:36.466Z,26.42
2022-11-30T09:37:40.165Z,24.52
2022-11-30T09:38:42.373Z,26.67
2022-11-30T09:39:44.834Z,26.10
2022-11-30T09:40:47.621Z,25.98
2022-11-30T09:42:27.671Z,25.63
2022-11-30T09:43:41.949Z,26.90
2022-11-30T09:44:52.175Z,27.70
2022-11-30T09:45:58.472Z,26.80
2022-11-30T09:47:10.661Z,27.48
2022-11-30T09:48:29.941Z,27.50
2022-11-30T09:49:36.882Z,26.88
2022-11-30T09:50:43.075Z,25.25
2022-11-30T09:51:47.979Z,25.65
2022-11-30T09:52:52.299Z,26.50
2022-11-30T09:53:58.720Z,25.60
2022-11-30T09:55:06.542Z,26.05
2022-11-30T09:56:19.852Z,27.80
2022-11-30T09:57:28.224Z,27.73
2022-11-30T09:58:48.083Z,27.33
2022-11-30T09:59:55.828Z,23.60
2022-11-30T10:01:01.247Z,27.08
2022-11-30T10:02:18.077Z,25.65
2022-11-30T10:03:23.977Z,27.95
2022-11-30T10:04:28.466Z,28.70
2022-11-30T10:05:46.486Z,26.85
2022-11-30T10:07:00.339Z,28.27
2022-11-30T10:08:20.442Z,28.27
2022-11-30T10:09:34.093Z,27.13
2022-11-30T10:10:43.121Z,31.17
2022-11-30T10:11:54.636Z,26.65
2022-11-30T10:13:07.588Z,26.65
2022-11-30T10:14:32.128Z,25.45
2022-11-30T10:15:46.570Z,28.00
2022-11-30T10:16:58.381Z,24.13
2022-11-30T10:18:15.801Z,25.75
2022-11-30T10:19:35.111Z,28.35
2022-11-30T10:21:03.723Z,28.33
2022-11-30T10:22:15.604Z,28.42
2022-11-30T10:23:36.909Z,26.85
2022-11-30T10:24:57.761Z,30.02
2022-11-30T10:26:07.218Z,31.15
2022-11-30T10:27:17.558Z,28.77
2022-11-30T10:28:48.618Z,28.88
2022-11-30T10:29:52.104Z,28.17
2022-11-30T10:30:55.031Z,26.40
2022-11-30T10:32:00.740Z,27.20
2022-11-30T10:33:15.330Z,23.67
2022-11-30T10:34:22.256Z,25.75
2022-11-30T10:35:35.276Z,23.70
2022-11-30T10:36:42.967Z,25.65
2022-11-30T10:37:47.605Z,26.20
2022-11-30T10:38:53.958Z,25.80
2022-11-30T10:40:02.436Z,26.52
2022-11-30T10:41:11.272Z,24.13
2022-11-30T10:42:20.772Z,26.08
2022-11-30T10:43:30.024Z,26.20
2022-11-30T10:44:35.893Z,25.88
2022-11-30T10:45:44.386Z,23.27
2022-11-30T10:46:56.133Z,24.67
2022-11-30T10:48:04.736Z,24.60
2022-11-30T10:49:15.398Z,23.13
2022-11-30T10:50:18.688Z,24.23
2022-11-30T10:51:21.553Z,24.85
2022-11-30T10:52:27.888Z,25.02
2022-11-30T10:53:30.478Z,27.00
2022-11-30T10:54:34.174Z,27.38
2022-11-30T10:55:41.509Z,25.75
2022-11-30T10:56:44.175Z,28.23
2022-11-30T10:57:49.445Z,24.48
2022-11-30T10:58:57.717Z,27.20
2022-11-30T11:00:05.113Z,27.88
2022-11-30T11:01:09.933Z,27.10
2022-11-30T11:02:42.378Z,27.52
2022-11-30T11:03:45.145Z,28.23
2022-11-30T11:04:49.208Z,28.77
2022-11-30T11:08:26.216Z,27.80
2022-11-30T11:09:37.481Z,27.90
2022-11-30T11:10:46.252Z,26.58
2022-11-30T11:11:54.799Z,27.65
2022-11-30T11:12:57.277Z,27.48
2022-11-30T11:14:16.090Z,25.65
2022-11-30T11:15:22.130Z,23.60
2022-11-30T11:16:24.760Z,27.77
2022-11-30T11:17:28.900Z,27.42
2022-11-30T11:18:32.751Z,28.23
2022-11-30T11:19:38.513Z,26.30
2022-11-30T11:20:43.269Z,25.15
2022-11-30T11:21:49.477Z,26.33
2022-11-30T11:22:52.013Z,26.25
2022-11-30T11:23:56.689Z,25.40
2022-11-30T11:25:12.130Z,28.15
2022-11-30T11:26:18.593Z,26.90
2022-11-30T11:27:26.539Z,25.85
2022-11-30T11:28:30.175Z,30.38
2022-11-30T11:29:35.352Z,28.75
2022-11-30T11:30:38.382Z,27.63
2022-11-30T11:31:44.113Z,27.23
2022-11-30T11:32:59.091Z,26.92
2022-11-30T11:34:01.722Z,26.17
2022-11-30T11:35:04.196Z,28.45
2022-11-30T11:36:16.379Z,25.73
2022-11-30T11:37:21.720Z,26.92
2022-11-30T11:38:27.285Z,27.30
2022-11-30T11:39:28.828Z,27.05
2022-11-30T11:40:31.855Z,26.33
2022-11-30T11:41:37.333Z,26.60
2022-11-30T11:42:47.051Z,26.65
2022-11-30T11:44:05.129Z,27.08
2022-11-30T11:45:18.356Z,26.17
2022-11-30T11:46:20.908Z,25.55
2022-11-30T11:47:26.394Z,24.13
2022-11-30T11:48:33.560Z,24.63
2022-11-30T11:49:37.871Z,25.33
2022-11-30T11:52:15.193Z,24.25
2022-11-30T11:53:24.825Z,24.23
2022-11-30T11:54:32.414Z,23.92
2022-11-30T11:55:35.862Z,24.48
2022-11-30T11:56:38.758Z,25.20
2022-11-30T11:57:45.508Z,25.55
2022-11-30T11:58:51.933Z,23.90
2022-11-30T12:00:01.832Z,24.75
2022-11-30T12:01:38.616Z,24.48
2022-11-30T12:02:40.029Z,25.50
2022-11-30T12:03:51.386Z,22.80
2022-11-30T12:04:57.609Z,22.83
2022-11-30T12:06:06.078Z,23.52
2022-11-30T12:07:20.215Z,25.77
2022-11-30T12:08:29.057Z,23.25
2022-11-30T12:09:37.421Z,22.95
2022-11-30T12:10:51.709Z,22.00
2022-11-30T12:11:55.990Z,22.05
2022-11-30T12:12:59.180Z,23.35
2022-11-30T12:14:09.225Z,23.80
2022-11-30T12:15:12.333Z,24.48
2022-11-30T12:16:33.887Z,25.48
2022-11-30T12:17:49.341Z,22.70
2022-11-30T12:18:58.922Z,22.35
2022-11-30T12:20:14.260Z,22.75
2022-11-30T12:21:22.026Z,22.25
2022-11-30T12:22:43.429Z,20.98
2022-11-30T12:24:11.019Z,19.33
2022-11-30T12:25:26.401Z,20.23
2022-11-30T12:26:38.084Z,21.77
2022-11-30T12:27:53.583Z,20.48
2022-11-30T12:29:25.079Z,22.45
2022-11-30T12:30:34.813Z,21.17
2022-11-30T12:31:44.770Z,21.23
2022-11-30T12:33:06.495Z,22.67
2022-11-30T12:34:17.077Z,22.60
2022-11-30T12:35:30.209Z,20.40
2022-11-30T12:36:50.829Z,20.92
2022-11-30T12:38:02.820Z,20.83
2022-11-30T12:39:10.312Z,21.70
2022-11-30T12:40:26.159Z,23.40
2022-11-30T12:41:39.048Z,22.63
2022-11-30T12:42:47.314Z,21.85
2022-11-30T12:43:56.937Z,22.08
2022-11-30T12:45:06.974Z,22.67
2022-11-30T12:46:15.545Z,23.88
2022-11-30T12:47:31.119Z,23.17
2022-11-30T12:48:41.617Z,22.95
2022-11-30T12:49:59.022Z,24.00
2022-11-30T12:51:12.763Z,23.60
2022-11-30T12:52:28.745Z,22.83
2022-11-30T12:53:39.191Z,22.88
2022-11-30T12:54:48.613Z,23.00
2022-11-30T12:56:01.390Z,22.58
2022-11-30T12:57:13.927Z,23.90
2022-11-30T12:58:23.016Z,22.85
2022-11-30T12:59:33.208Z,24.50
2022-11-30T13:00:52.243Z,23.27
2022-11-30T13:02:18.484Z,26.65
2022-11-30T13:03:42.971Z,26.60
2022-11-30T13:04:56.357Z,25.20
2022-11-30T13:06:05.725Z,26.48
2022-11-30T13:07:21.432Z,25.60
2022-11-30T13:08:28.193Z,27.63
2022-11-30T13:09:36.764Z,26.55
2022-11-30T13:10:42.967Z,27.25
2022-11-30T13:11:53.701Z,28.27
2022-11-30T13:12:58.066Z,28.75
2022-11-30T13:14:01.795Z,26.45
2022-11-30T13:15:16.235Z,27.90
2022-11-30T13:16:21.496Z,25.25
2022-11-30T13:17:25.034Z,30.23
2022-11-30T13:18:27.790Z,27.70
2022-11-30T13:19:45.362Z,29.45
2022-11-30T13:20:53.911Z,29.55
2022-11-30T13:22:00.948Z,30.27
2022-11-30T13:23:09.143Z,29.52
2022-11-30T13:24:17.445Z,28.65
2022-11-30T13:26:06.403Z,30.88
2022-11-30T13:26:58.968Z,28.50
2022-11-30T13:28:08.850Z,28.83
2022-11-30T13:29:32.352Z,27.83
2022-11-30T13:30:41.733Z,31.83
2022-11-30T13:31:49.353Z,28.90
2022-11-30T13:32:59.460Z,28.52
2022-11-30T13:34:02.137Z,29.55
2022-11-30T13:35:42.420Z,30.70
2022-11-30T13:36:46.527Z,29.48
2022-11-30T13:38:20.696Z,29.27
2022-11-30T13:39:25.793Z,29.00
2022-11-30T13:40:29.836Z,28.20
2022-11-30T13:41:32.831Z,27.88
2022-11-30T13:42:39.475Z,29.38
2022-11-30T13:43:46.082Z,26.60
2022-11-30T13:44:48.081Z,26.48
2022-11-30T13:46:04.476Z,27.00
2022-11-30T13:47:18.978Z,27.10
2022-11-30T13:48:33.917Z,25.98
2022-11-30T13:49:37.828Z,26.00
2022-11-30T13:50:40.019Z,25.55
2022-11-30T13:51:42.811Z,26.10
2022-11-30T13:53:33.962Z,24.45
2022-11-30T13:54:41.869Z,25.90
2022-11-30T13:56:05.315Z,24.77
2022-11-30T13:57:44.307Z,26.15
2022-11-30T13:59:34.451Z,25.90
2022-11-30T14:01:02.053Z,24.27
2022-11-30T14:02:58.041Z,26.15
2022-11-30T14:04:28.619Z,25.85
2022-11-30T14:05:40.218Z,24.88
2022-11-30T14:06:49.144Z,24.70
2022-11-30T14:08:32.041Z,24.90
2022-11-30T14:09:59.588Z,26.08
2022-11-30T14:11:39.139Z,23.58
2022-11-30T14:12:58.507Z,25.23